Time;durP1;ratioP1;P1;durP2;ratioP2;P2;SDS_P1;SDS_P2;PMS_P1;PMS_P2;Temp;Humidity;BMP_temperature;BMP_pressure;BME280_temperature;BME280_humidity;BME280_pressure;Samples;Min_cycle;Max_cycle;Signal;HPM_P1;HPM_P2
2022/07/15 00:01:07;;;;;;;5.40;1.80;;;20.90;53.10;;;;;;4992026;28;20472;-80
2022/07/15 00:03:35;;;;;;;4.83;1.60;;;20.90;53.10;;;;;;4991537;28;20456;-80
2022/07/15 00:06:04;;;;;;;5.80;1.80;;;20.80;53.10;;;;;;5005222;28;20495;-80
2022/07/15 00:08:31;;;;;;;5.80;1.63;;;20.70;53.20;;;;;;5002819;28;20475;-80
2022/07/15 00:11:01;;;;;;;7.47;2.00;;;20.60;53.30;;;;;;5005569;28;20901;-80
2022/07/15 00:13:31;;;;;;;5.30;1.73;;;20.50;53.40;;;;;;5005627;28;20466;-80
2022/07/15 00:15:59;;;;;;;5.00;1.83;;;20.50;53.50;;;;;;5005208;28;20488;-80
2022/07/15 00:18:27;;;;;;;5.80;1.53;;;20.50;53.60;;;;;;5005799;28;21300;-79
2022/07/15 00:20:55;;;;;;;5.60;1.53;;;20.50;53.60;;;;;;5008286;28;20797;-80
2022/07/15 00:23:23;;;;;;;4.80;1.90;;;20.40;53.70;;;;;;5005018;28;20469;-79
2022/07/15 00:25:51;;;;;;;5.80;2.03;;;20.40;53.70;;;;;;5004882;28;20483;-80
2022/07/15 00:28:20;;;;;;;4.50;1.60;;;20.40;53.70;;;;;;5011847;28;20843;-80
2022/07/15 00:30:48;;;;;;;5.17;1.73;;;20.30;53.80;;;;;;5007781;28;20495;-79
2022/07/15 00:33:16;;;;;;;9.83;1.90;;;20.30;53.90;;;;;;4986391;28;20462;-80
2022/07/15 00:35:44;;;;;;;7.00;2.57;;;20.30;54.00;;;;;;5004855;28;20479;-79
2022/07/15 00:38:12;;;;;;;5.30;1.80;;;20.30;54.00;;;;;;5005648;28;20550;-80
2022/07/15 00:40:44;;;;;;;4.13;1.57;;;20.30;54.00;;;;;;4986636;28;20557;-82
2022/07/15 00:43:12;;;;;;;4.67;2.00;;;20.20;54.10;;;;;;4997466;28;20911;-82
2022/07/15 00:45:42;;;;;;;5.40;2.37;;;20.20;54.10;;;;;;4994696;28;20884;-81
2022/07/15 00:48:10;;;;;;;4.60;1.43;;;20.10;54.20;;;;;;5011307;28;20474;-79
2022/07/15 00:50:46;;;;;;;3.97;1.43;;;20.00;54.30;;;;;;4995860;28;20488;-79
2022/07/15 00:53:18;;;;;;;5.13;1.60;;;20.00;54.40;;;;;;5019249;28;20466;-80
2022/07/15 00:55:47;;;;;;;8.80;1.73;;;19.90;54.60;;;;;;5019769;28;20879;-81
2022/07/15 00:58:18;;;;;;;8.23;1.90;;;19.90;54.70;;;;;;5004381;28;20469;-79
2022/07/15 01:00:49;;;;;;;5.70;1.57;;;19.90;54.70;;;;;;4994723;28;21310;-80
2022/07/15 01:03:18;;;;;;;5.43;2.20;;;19.80;54.70;;;;;;4993708;28;20522;-80
2022/07/15 01:05:47;;;;;;;5.90;1.80;;;19.80;54.70;;;;;;4994710;28;20487;-80
2022/07/15 01:08:17;;;;;;;5.17;1.50;;;19.70;54.70;;;;;;5001977;28;20465;-79
2022/07/15 01:10:47;;;;;;;6.07;1.67;;;19.60;54.80;;;;;;5001603;28;20491;-80
2022/07/15 01:13:16;;;;;;;5.20;1.67;;;19.50;54.90;;;;;;4999606;28;21028;-80
2022/07/15 01:15:43;;;;;;;4.00;1.40;;;19.50;55.00;;;;;;5004831;28;20559;-79
2022/07/15 01:18:14;;;;;;;8.33;2.20;;;19.50;55.10;;;;;;5028861;28;20475;-79
2022/07/15 01:20:46;;;;;;;4.90;1.83;;;19.50;55.20;;;;;;5028183;28;20466;-79
2022/07/15 01:23:14;;;;;;;3.97;1.43;;;19.50;55.30;;;;;;5024050;28;20473;-80
2022/07/15 01:25:53;;;;;;;5.60;2.57;;;19.50;55.30;;;;;;5008651;28;20585;-80
2022/07/15 01:28:21;;;;;;;4.33;1.80;;;19.40;55.30;;;;;;5012826;28;20465;-80
2022/07/15 01:30:50;;;;;;;5.10;1.90;;;19.40;55.40;;;;;;5002210;28;20510;-79
2022/07/15 01:33:18;;;;;;;5.43;1.40;;;19.30;55.50;;;;;;4986280;28;20472;-80
2022/07/15 01:35:48;;;;;;;4.50;2.23;;;19.30;55.50;;;;;;5000904;28;20519;-80
2022/07/15 01:38:18;;;;;;;7.30;1.60;;;19.30;55.60;;;;;;4991813;28;20494;-79
2022/07/15 01:40:49;;;;;;;5.17;2.03;;;19.30;55.60;;;;;;5010375;28;20470;-79
2022/07/15 01:47:23;;;;;;;4.70;1.70;;;19.20;55.80;;;;;;4999537;28;20514;-80
2022/07/15 01:49:51;;;;;;;4.43;1.70;;;19.10;55.90;;;;;;5000395;28;20499;-80
2022/07/15 01:52:24;;;;;;;5.00;1.70;;;19.00;56.10;;;;;;4983942;28;21192;-80
2022/07/15 01:54:53;;;;;;;7.10;1.90;;;19.00;56.20;;;;;;5005858;28;20592;-79
2022/07/15 01:57:21;;;;;;;4.73;1.90;;;19.00;56.10;;;;;;4987028;28;20521;-80
2022/07/15 01:59:52;;;;;;;6.47;1.90;;;18.90;56.10;;;;;;4992664;28;20558;-80
2022/07/15 02:02:49;;;;;;;5.20;1.63;;;18.80;56.10;;;;;;5020055;28;20493;-79
2022/07/15 02:05:20;;;;;;;5.47;1.90;;;18.70;56.10;;;;;;5009011;28;20514;-80
2022/07/15 02:07:52;;;;;;;4.83;1.50;;;18.60;56.20;;;;;;5027047;28;20522;-80
2022/07/15 02:10:21;;;;;;;7.83;2.27;;;18.60;56.30;;;;;;5015828;28;20467;-79
2022/07/15 02:12:49;;;;;;;4.57;1.80;;;18.50;56.40;;;;;;5006219;28;21116;-79
2022/07/15 02:15:21;;;;;;;5.20;2.20;;;18.50;56.50;;;;;;5021816;28;20492;-79
2022/07/15 02:17:53;;;;;;;4.80;2.07;;;18.50;56.60;;;;;;5008610;28;20466;-79
2022/07/15 02:20:24;;;;;;;5.00;1.77;;;18.50;56.70;;;;;;5020578;28;20479;-79
2022/07/15 02:22:57;;;;;;;4.83;1.73;;;18.50;56.70;;;;;;5018404;28;20553;-78
2022/07/15 02:25:26;;;;;;;8.50;2.40;;;18.40;56.70;;;;;;5015668;28;20587;-79
2022/07/15 02:27:57;;;;;;;4.13;1.97;;;18.40;56.80;;;;;;5015758;28;20552;-80
2022/07/15 02:30:25;;;;;;;4.70;1.67;;;18.40;56.80;;;;;;5022699;28;20470;-80
2022/07/15 02:32:53;;;;;;;4.27;1.70;;;18.30;57.00;;;;;;5009692;28;20488;-80
2022/07/15 02:35:21;;;;;;;4.53;1.80;;;18.20;57.00;;;;;;5022435;28;20483;-81
2022/07/15 02:37:50;;;;;;;5.40;1.83;;;18.20;57.10;;;;;;5019807;28;20455;-82
2022/07/15 02:40:20;;;;;;;4.03;1.47;;;18.10;57.20;;;;;;5007139;28;20470;-80
2022/07/15 02:42:50;;;;;;;6.10;2.40;;;18.10;57.40;;;;;;5021843;28;20482;-80
2022/07/15 02:45:20;;;;;;;4.10;1.80;;;18.10;57.50;;;;;;5022819;28;20475;-79
2022/07/15 02:47:48;;;;;;;4.57;1.60;;;18.10;57.60;;;;;;5026356;28;20486;-79
2022/07/15 02:50:23;;;;;;;4.90;1.90;;;18.10;57.50;;;;;;5003522;28;21134;-79
2022/07/15 02:52:51;;;;;;;5.10;2.03;;;18.10;57.50;;;;;;5007344;28;20500;-80
2022/07/15 02:55:21;;;;;;;5.17;2.20;;;18.00;57.50;;;;;;5015536;28;20479;-80
2022/07/15 02:57:49;;;;;;;8.13;1.80;;;17.90;57.60;;;;;;5022276;28;20543;-79
2022/07/15 03:00:19;;;;;;;4.43;1.80;;;17.90;57.80;;;;;;5015601;28;20475;-81
2022/07/15 03:02:50;;;;;;;4.77;2.17;;;17.90;57.80;;;;;;5006104;28;20458;-80
2022/07/15 03:05:19;;;;;;;5.63;1.70;;;17.90;57.90;;;;;;5005943;28;20877;-81
2022/07/15 03:07:47;;;;;;;4.73;2.27;;;17.90;58.00;;;;;;5011017;28;20678;-80
2022/07/15 03:10:20;;;;;;;8.93;2.00;;;17.80;58.00;;;;;;5036981;28;20456;-80
2022/07/15 03:12:49;;;;;;;6.00;2.10;;;17.80;58.10;;;;;;5020643;28;20502;-79
2022/07/15 03:15:18;;;;;;;5.23;2.30;;;17.80;58.10;;;;;;5009836;28;20479;-79
2022/07/15 03:17:47;;;;;;;6.80;2.13;;;17.80;58.10;;;;;;5012971;28;20465;-79
2022/07/15 03:20:15;;;;;;;5.73;3.07;;;17.80;58.20;;;;;;5018383;28;20465;-79
2022/07/15 03:22:47;;;;;;;7.87;2.40;;;17.80;58.20;;;;;;5010986;28;20472;-80
2022/07/15 03:25:15;;;;;;;4.10;1.80;;;17.70;58.10;;;;;;5030987;28;20675;-79
2022/07/15 03:27:45;;;;;;;5.93;2.13;;;17.60;58.10;;;;;;5025098;28;20481;-79
2022/07/15 03:30:14;;;;;;;4.87;1.70;;;17.60;58.10;;;;;;5026071;28;20468;-79
2022/07/15 03:32:43;;;;;;;4.40;1.87;;;17.50;58.20;;;;;;5009634;28;20991;-80
2022/07/15 03:35:11;;;;;;;6.03;2.03;;;17.40;58.30;;;;;;5027932;28;20999;-79
2022/07/15 03:37:40;;;;;;;4.70;1.80;;;17.30;58.30;;;;;;5016662;28;20492;-79
2022/07/15 03:40:10;;;;;;;4.10;1.70;;;17.20;58.40;;;;;;5016835;28;20510;-79
2022/07/15 03:42:38;;;;;;;5.40;2.30;;;17.20;58.60;;;;;;5028594;28;20632;-79
2022/07/15 03:45:09;;;;;;;4.83;2.00;;;17.20;58.70;;;;;;5013355;28;21278;-79
2022/07/15 03:47:38;;;;;;;9.70;2.47;;;17.20;58.70;;;;;;5027696;28;20472;-79
2022/07/15 03:50:11;;;;;;;7.20;2.70;;;17.20;58.80;;;;;;5035847;28;20534;-80
2022/07/15 03:52:41;;;;;;;6.13;2.20;;;17.20;59.00;;;;;;5025219;28;20456;-79
2022/07/15 03:55:11;;;;;;;6.50;1.90;;;17.30;59.10;;;;;;5013449;28;20494;-80
2022/07/15 03:57:39;;;;;;;4.60;2.20;;;17.30;59.10;;;;;;5015182;28;20819;-80
2022/07/15 04:00:10;;;;;;;4.30;1.90;;;17.30;59.10;;;;;;5010985;28;20455;-79
2022/07/15 04:02:43;;;;;;;4.93;1.97;;;17.30;59.10;;;;;;5005986;28;20462;-79
2022/07/15 04:05:15;;;;;;;4.30;1.63;;;17.40;59.20;;;;;;5019970;28;20603;-80
2022/07/15 04:07:43;;;;;;;4.27;1.93;;;17.40;59.20;;;;;;5022609;28;20471;-80
2022/07/15 04:10:11;;;;;;;4.57;1.80;;;17.40;59.20;;;;;;5029296;28;20455;-79
2022/07/15 04:12:39;;;;;;;4.80;2.23;;;17.40;59.40;;;;;;5011219;28;20483;-80
2022/07/15 04:15:15;;;;;;;5.37;1.90;;;17.40;59.50;;;;;;5032260;28;20479;-80
2022/07/15 04:17:46;;;;;;;4.67;2.20;;;17.40;59.60;;;;;;5015376;28;20919;-79
2022/07/15 04:20:19;;;;;;;7.33;2.10;;;17.40;59.60;;;;;;5015948;28;20464;-80
2022/07/15 04:22:50;;;;;;;5.60;1.90;;;17.50;59.60;;;;;;5034857;28;20471;-79
2022/07/15 04:25:21;;;;;;;5.70;2.30;;;17.50;59.70;;;;;;5030559;28;20485;-80
2022/07/15 04:27:49;;;;;;;9.27;2.20;;;17.50;59.70;;;;;;5025296;28;20464;-80
2022/07/15 04:30:24;;;;;;;6.53;2.33;;;17.60;59.70;;;;;;5039448;28;20457;-80
2022/07/15 04:32:52;;;;;;;8.33;2.00;;;17.60;59.80;;;;;;5041290;28;20468;-80
2022/07/15 04:35:22;;;;;;;8.13;2.47;;;17.60;59.80;;;;;;5033175;28;20488;-79
2022/07/15 04:37:58;;;;;;;6.13;1.90;;;17.70;59.90;;;;;;5024450;28;21007;-80
2022/07/15 04:40:31;;;;;;;9.00;2.53;;;17.80;60.00;;;;;;5036308;28;20491;-80
2022/07/15 04:43:03;;;;;;;8.90;2.10;;;17.90;59.90;;;;;;5016193;28;21034;-79
2022/07/15 04:45:33;;;;;;;7.23;2.00;;;18.00;59.80;;;;;;5020527;28;20476;-80
2022/07/15 04:48:01;;;;;;;5.10;1.97;;;18.10;59.90;;;;;;5010520;28;20567;-80
2022/07/15 04:50:46;;;;;;;5.23;2.33;;;18.20;60.00;;;;;;5032229;28;20458;-79
2022/07/15 04:53:14;;;;;;;7.80;2.40;;;18.40;59.90;;;;;;5019876;28;20460;-78
2022/07/15 04:55:46;;;;;;;5.87;2.50;;;18.50;59.90;;;;;;5024482;28;20489;-78
2022/07/15 04:58:15;;;;;;;6.30;2.40;;;18.70;59.90;;;;;;5009323;28;20556;-78
2022/07/15 05:00:46;;;;;;;7.23;2.43;;;18.80;59.80;;;;;;5032103;28;20512;-78
2022/07/15 05:03:16;;;;;;;5.93;2.33;;;18.90;59.70;;;;;;5007467;28;20466;-78
2022/07/15 05:05:44;;;;;;;8.83;2.40;;;18.90;59.70;;;;;;5030435;28;20540;-79
2022/07/15 05:08:17;;;;;;;6.83;2.53;;;18.90;59.80;;;;;;5007802;28;20475;-79
2022/07/15 05:10:49;;;;;;;10.30;2.70;;;19.00;60.00;;;;;;5009735;28;20545;-78
2022/07/15 05:13:18;;;;;;;7.83;2.20;;;19.10;60.00;;;;;;5006631;28;20527;-78
2022/07/15 05:15:49;;;;;;;6.40;2.43;;;19.30;59.90;;;;;;5026087;28;20511;-78
2022/07/15 05:18:22;;;;;;;6.23;2.47;;;19.30;59.70;;;;;;5026858;28;20468;-78
2022/07/15 05:20:53;;;;;;;11.77;2.63;;;19.40;59.90;;;;;;5024559;28;20473;-78
2022/07/15 05:23:24;;;;;;;8.03;2.67;;;19.60;60.00;;;;;;5027044;28;20490;-78
2022/07/15 05:25:58;;;;;;;8.17;2.43;;;19.70;59.90;;;;;;5011181;28;20491;-79
2022/07/15 05:28:26;;;;;;;6.07;2.43;;;19.80;59.90;;;;;;5033217;28;20510;-79
2022/07/15 05:30:55;;;;;;;5.03;2.50;;;19.90;60.10;;;;;;5016964;28;20467;-78
2022/07/15 05:33:23;;;;;;;6.43;2.40;;;20.00;60.00;;;;;;5012779;28;20470;-78
2022/07/15 05:35:52;;;;;;;9.80;2.60;;;20.20;60.30;;;;;;5028003;28;21052;-78
2022/07/15 05:38:26;;;;;;;6.07;2.60;;;20.50;60.70;;;;;;5012245;28;20458;-79
2022/07/15 05:40:54;;;;;;;5.93;2.40;;;21.00;60.30;;;;;;5014908;28;20928;-79
2022/07/15 05:43:25;;;;;;;4.60;2.07;;;21.70;59.30;;;;;;5014058;28;20808;-78
2022/07/15 05:45:54;;;;;;;5.30;2.23;;;22.60;58.20;;;;;;5012949;28;20477;-79
2022/07/15 05:48:25;;;;;;;5.57;2.20;;;23.60;56.80;;;;;;5020255;28;20495;-79
2022/07/15 05:50:55;;;;;;;9.10;2.57;;;24.40;55.40;;;;;;5028470;28;20461;-79
2022/07/15 05:53:24;;;;;;;7.50;2.37;;;25.10;54.60;;;;;;5014624;28;20457;-80
2022/07/15 05:55:52;;;;;;;7.03;2.50;;;25.70;53.70;;;;;;5024883;28;20476;-80
2022/07/15 05:58:22;;;;;;;5.93;1.90;;;26.20;53.00;;;;;;5014244;28;20471;-80
2022/07/15 06:00:52;;;;;;;6.00;1.77;;;26.50;52.10;;;;;;5032214;28;21230;-79
2022/07/15 06:03:23;;;;;;;4.87;1.60;;;26.30;51.70;;;;;;5023903;28;20489;-79
2022/07/15 06:05:51;;;;;;;5.43;2.20;;;26.30;51.80;;;;;;5019880;28;21053;-80
2022/07/15 06:08:19;;;;;;;6.20;2.10;;;26.20;51.60;;;;;;5028397;28;20969;-80
2022/07/15 06:10:47;;;;;;;7.17;1.93;;;26.20;51.50;;;;;;5032853;28;20474;-80
2022/07/15 06:13:15;;;;;;;5.00;1.67;;;26.20;51.10;;;;;;5007183;28;20462;-80
2022/07/15 06:15:45;;;;;;;4.80;1.60;;;26.10;51.00;;;;;;5021399;28;20500;-80
2022/07/15 06:18:19;;;;;;;4.77;1.93;;;26.00;50.80;;;;;;5007877;28;20547;-80
2022/07/15 06:20:50;;;;;;;4.27;1.70;;;25.90;50.90;;;;;;5022642;28;20465;-80
2022/07/15 06:23:18;;;;;;;5.13;1.77;;;25.80;50.80;;;;;;5019482;28;20472;-80
2022/07/15 06:25:46;;;;;;;5.27;1.70;;;25.60;50.80;;;;;;5025777;28;20487;-80
2022/07/15 06:28:14;;;;;;;4.17;1.50;;;25.40;51.10;;;;;;5008979;28;20457;-80
2022/07/15 06:30:42;;;;;;;5.43;1.60;;;25.20;51.10;;;;;;5009791;28;20478;-79
2022/07/15 06:33:10;;;;;;;6.90;1.53;;;24.90;51.10;;;;;;5024931;28;20465;-80
2022/07/15 06:35:38;;;;;;;7.00;1.80;;;24.70;51.00;;;;;;5020299;28;20494;-80
2022/07/15 06:38:13;;;;;;;4.63;1.67;;;24.40;51.30;;;;;;5026044;28;20852;-80
2022/07/15 06:40:43;;;;;;;6.63;1.87;;;24.10;51.40;;;;;;5027364;28;20999;-80
2022/07/15 06:43:12;;;;;;;8.87;1.80;;;23.70;51.70;;;;;;5005479;28;20489;-80
2022/07/15 06:46:00;;;;;;;5.60;1.83;;;23.50;52.00;;;;;;5021721;28;20483;-79
2022/07/15 06:48:29;;;;;;;6.50;1.97;;;23.20;52.20;;;;;;5009376;28;20469;-80
2022/07/15 06:50:57;;;;;;;5.23;1.50;;;23.00;52.50;;;;;;5020620;28;20574;-79
2022/07/15 06:53:27;;;;;;;5.47;2.00;;;22.80;52.80;;;;;;5027832;28;20546;-79
2022/07/15 06:55:55;;;;;;;4.70;1.70;;;22.70;53.00;;;;;;5004639;28;20487;-79
2022/07/15 06:58:23;;;;;;;5.20;1.37;;;22.60;53.10;;;;;;5020621;28;20567;-80
2022/07/15 07:00:51;;;;;;;6.90;1.47;;;22.50;53.40;;;;;;5010676;28;20813;-79
2022/07/15 07:03:19;;;;;;;7.40;2.10;;;22.40;53.60;;;;;;5021480;28;20876;-79
2022/07/15 07:06:08;;;;;;;4.30;1.43;;;22.30;53.80;;;;;;5014463;28;21264;-80
2022/07/15 07:08:37;;;;;;;5.23;1.30;;;22.30;53.90;;;;;;5010145;28;21029;-81
2022/07/15 07:11:13;;;;;;;4.80;1.50;;;22.20;54.10;;;;;;5010769;28;20874;-81
2022/07/15 07:13:42;;;;;;;5.50;1.90;;;22.30;54.20;;;;;;5022272;28;20537;-80
2022/07/15 07:16:12;;;;;;;5.03;1.67;;;22.30;54.20;;;;;;5019589;28;20848;-80
2022/07/15 07:18:41;;;;;;;8.13;1.50;;;22.30;54.20;;;;;;5024637;28;21007;-80
2022/07/15 07:21:09;;;;;;;5.20;1.53;;;22.30;54.30;;;;;;5024384;28;20920;-80
2022/07/15 07:23:39;;;;;;;5.33;1.20;;;22.30;54.40;;;;;;5013705;28;20527;-81
2022/07/15 07:26:09;;;;;;;7.20;1.47;;;22.30;54.50;;;;;;5020730;28;20480;-80
2022/07/15 07:28:39;;;;;;;4.20;1.30;;;22.30;54.20;;;;;;5020527;28;20955;-80
2022/07/15 07:31:07;;;;;;;5.50;1.80;;;22.30;54.10;;;;;;5015837;28;20471;-80
2022/07/15 07:33:35;;;;;;;5.07;1.43;;;22.30;54.20;;;;;;5020649;28;20449;-80
2022/07/15 07:36:05;;;;;;;4.07;1.17;;;22.20;54.00;;;;;;5023113;28;21302;-80
2022/07/15 07:38:33;;;;;;;4.07;1.00;;;22.20;54.00;;;;;;5011129;28;20838;-80
2022/07/15 07:41:03;;;;;;;5.47;1.17;;;22.20;53.80;;;;;;5019053;28;21191;-80
2022/07/15 07:43:32;;;;;;;10.10;1.43;;;22.20;53.90;;;;;;5009133;28;20545;-80
2022/07/15 07:46:00;;;;;;;4.27;1.33;;;22.20;54.00;;;;;;5022188;28;20484;-81
2022/07/15 07:48:29;;;;;;;4.17;1.13;;;22.20;53.80;;;;;;5021076;28;20470;-81
2022/07/15 07:50:57;;;;;;;10.57;2.03;;;22.20;53.70;;;;;;5018322;28;20481;-80
2022/07/15 07:53:25;;;;;;;7.80;1.83;;;22.10;53.50;;;;;;5009623;28;20455;-80
2022/07/15 07:55:53;;;;;;;4.83;1.50;;;22.10;53.70;;;;;;5032579;28;20491;-80
2022/07/15 07:58:23;;;;;;;5.00;1.53;;;22.20;53.90;;;;;;5012426;28;20457;-80
2022/07/15 08:00:52;;;;;;;6.20;1.50;;;22.20;54.00;;;;;;5020204;28;20465;-80
2022/07/15 08:03:20;;;;;;;8.27;1.40;;;22.30;54.10;;;;;;5021264;28;21475;-80
2022/07/15 08:05:48;;;;;;;5.03;1.40;;;22.40;54.00;;;;;;5027515;28;20479;-80
2022/07/15 08:08:17;;;;;;;4.77;1.60;;;22.40;53.90;;;;;;5023587;28;20459;-81
2022/07/15 08:10:47;;;;;;;9.57;1.30;;;22.40;53.80;;;;;;5031844;28;20489;-81
2022/07/15 08:13:16;;;;;;;5.43;1.60;;;22.40;53.80;;;;;;5013097;28;20467;-80
2022/07/15 08:15:46;;;;;;;6.73;1.50;;;22.40;53.80;;;;;;5024965;28;20496;-80
2022/07/15 08:18:17;;;;;;;5.10;1.53;;;22.40;53.90;;;;;;5022154;28;20454;-81
2022/07/15 08:20:45;;;;;;;5.90;1.60;;;22.40;54.00;;;;;;5020481;28;20473;-80
2022/07/15 08:23:19;;;;;;;7.03;1.50;;;22.50;53.90;;;;;;5018610;28;21073;-80
2022/07/15 08:25:47;;;;;;;4.73;1.50;;;22.50;54.00;;;;;;5011949;28;20487;-81
2022/07/15 08:28:15;;;;;;;6.27;1.83;;;22.50;54.00;;;;;;5021674;28;20454;-80
2022/07/15 08:30:43;;;;;;;9.97;1.70;;;22.50;53.90;;;;;;5018012;28;20468;-80
2022/07/15 08:33:13;;;;;;;9.43;1.63;;;22.50;53.90;;;;;;5020552;28;20458;-80
2022/07/15 08:35:42;;;;;;;11.30;1.90;;;22.50;53.90;;;;;;5029215;28;20479;-80
2022/07/15 08:38:11;;;;;;;6.53;1.70;;;22.50;54.00;;;;;;5020215;28;20452;-81
2022/07/15 08:40:40;;;;;;;9.43;1.70;;;22.50;54.00;;;;;;5010788;28;20452;-81
2022/07/15 08:43:10;;;;;;;7.33;1.57;;;22.50;54.10;;;;;;5018942;28;20487;-81
2022/07/15 08:45:42;;;;;;;6.03;1.83;;;22.50;54.00;;;;;;5021719;28;20524;-81
2022/07/15 08:48:13;;;;;;;7.30;1.40;;;22.50;54.00;;;;;;5031459;28;20468;-80
2022/07/15 08:50:43;;;;;;;4.73;1.30;;;22.50;54.10;;;;;;5025404;28;20488;-80
2022/07/15 08:53:11;;;;;;;7.60;1.90;;;22.60;54.10;;;;;;5023438;28;20456;-80
2022/07/15 08:55:39;;;;;;;6.10;1.40;;;22.70;54.10;;;;;;5024512;28;20488;-80
2022/07/15 08:58:07;;;;;;;4.50;1.30;;;22.80;54.10;;;;;;5022846;28;20454;-81
2022/07/15 09:00:36;;;;;;;4.40;1.63;;;23.00;54.10;;;;;;5021330;28;20460;-81
2022/07/15 09:03:05;;;;;;;5.70;1.40;;;23.10;53.80;;;;;;5017822;28;20463;-81
2022/07/15 09:05:36;;;;;;;5.90;1.33;;;23.10;53.70;;;;;;5023413;28;20702;-80
2022/07/15 09:08:06;;;;;;;5.07;1.60;;;23.10;53.70;;;;;;5023077;28;20467;-81
2022/07/15 09:10:49;;;;;;;4.37;1.73;;;23.20;53.70;;;;;;5015290;28;20582;-80
2022/07/15 09:13:31;;;;;;;8.10;2.47;;;23.20;53.50;;;;;;5018601;28;20469;-80
2022/07/15 09:16:00;;;;;;;7.80;2.30;;;23.20;53.40;;;;;;5024750;28;20486;-81
2022/07/15 09:18:31;;;;;;;5.57;2.10;;;23.20;53.30;;;;;;5022384;28;21288;-81
2022/07/15 09:21:02;;;;;;;6.90;2.10;;;23.10;53.30;;;;;;5024327;28;21233;-80
2022/07/15 09:23:31;;;;;;;5.40;1.37;;;23.00;53.30;;;;;;5021474;28;20483;-80
2022/07/15 09:26:01;;;;;;;4.77;1.53;;;23.00;53.30;;;;;;5022120;28;20481;-80
2022/07/15 09:28:40;;;;;;;6.50;1.90;;;22.90;53.30;;;;;;5011787;28;20525;-80
2022/07/15 09:34:01;;;;;;;4.80;1.37;;;23.00;53.50;;;;;;5018531;28;20464;-81
2022/07/15 09:36:32;;;;;;;5.10;1.93;;;23.00;53.50;;;;;;5020696;28;21116;-80
2022/07/15 09:39:02;;;;;;;10.57;2.03;;;23.00;53.40;;;;;;5023132;28;20468;-81
2022/07/15 09:41:32;;;;;;;3.80;1.40;;;23.00;53.40;;;;;;5022231;28;20458;-81
2022/07/15 09:44:02;;;;;;;5.57;1.53;;;23.00;53.50;;;;;;5017825;28;20997;-81
2022/07/15 09:46:42;;;;;;;6.80;1.87;;;23.10;53.50;;;;;;5024158;28;20506;-80
2022/07/15 09:49:10;;;;;;;7.43;2.00;;;23.10;53.30;;;;;;5030954;28;20470;-81
2022/07/15 09:51:49;;;;;;;6.00;1.87;;;23.10;53.20;;;;;;5018536;28;20510;-80
2022/07/15 09:54:18;;;;;;;10.97;1.87;;;23.00;53.30;;;;;;5017944;28;20469;-81
2022/07/15 09:56:47;;;;;;;7.83;1.57;;;23.10;53.30;;;;;;5023461;28;20469;-80
2022/07/15 09:59:16;;;;;;;5.27;2.20;;;23.10;53.30;;;;;;5024918;28;21241;-80
2022/07/15 10:01:47;;;;;;;6.40;1.73;;;23.10;53.30;;;;;;5029718;28;20463;-80
2022/07/15 10:04:18;;;;;;;9.07;2.40;;;23.20;53.30;;;;;;5019683;28;20473;-80
2022/07/15 10:06:50;;;;;;;7.10;2.63;;;23.30;53.30;;;;;;5024838;28;20444;-81
2022/07/15 10:09:39;;;;;;;5.00;2.17;;;23.30;53.20;;;;;;5011298;28;20470;-80
2022/07/15 10:12:11;;;;;;;7.10;2.23;;;23.40;53.10;;;;;;5020913;28;20571;-81
2022/07/15 10:14:56;;;;;;;5.40;1.90;;;23.50;53.10;;;;;;5022771;28;21040;-81
2022/07/15 10:18:05;;;;;;;6.37;2.13;;;23.50;53.00;;;;;;5010904;28;20455;-81
2022/07/15 10:20:54;;;;;;;5.50;1.90;;;23.60;53.00;;;;;;5021825;28;20456;-81
2022/07/15 10:23:55;;;;;;;11.50;3.17;;;23.60;52.90;;;;;;5010181;28;20460;-81
2022/07/15 10:26:40;;;;;;;6.17;2.13;;;23.60;52.80;;;;;;5018667;28;21241;-80
2022/07/15 10:29:11;;;;;;;4.30;2.03;;;23.60;53.00;;;;;;5022697;28;20452;-81
2022/07/15 10:31:41;;;;;;;5.17;1.90;;;23.60;52.90;;;;;;5022841;28;20832;-80
2022/07/15 10:34:22;;;;;;;5.93;2.23;;;23.60;52.80;;;;;;5021151;28;20466;-81
2022/07/15 10:37:02;;;;;;;10.53;2.20;;;23.60;52.60;;;;;;5024153;28;20452;-81
2022/07/15 10:39:51;;;;;;;5.73;2.10;;;23.50;52.60;;;;;;5024207;28;20459;-81
2022/07/15 10:42:20;;;;;;;7.83;2.10;;;23.50;52.70;;;;;;5021708;28;20509;-80
2022/07/15 10:45:08;;;;;;;5.80;2.23;;;23.40;52.90;;;;;;5023065;28;20480;-80
2022/07/15 10:47:37;;;;;;;5.67;1.90;;;23.50;52.80;;;;;;5008346;28;20466;-81
2022/07/15 10:50:39;;;;;;;5.40;2.40;;;23.50;52.90;;;;;;5021022;28;20479;-81
2022/07/15 10:53:18;;;;;;;5.93;1.80;;;23.60;53.00;;;;;;5019365;28;21078;-81
2022/07/15 10:55:47;;;;;;;7.93;2.37;;;23.70;52.90;;;;;;5023662;28;20487;-80
2022/07/15 10:58:17;;;;;;;6.80;2.00;;;23.80;52.90;;;;;;5005011;28;20829;-81
2022/07/15 11:00:47;;;;;;;8.43;2.80;;;23.80;53.00;;;;;;5019705;28;20519;-81
2022/07/15 11:03:17;;;;;;;5.47;2.10;;;23.80;53.00;;;;;;5023746;28;20450;-81
2022/07/15 11:06:06;;;;;;;6.30;2.57;;;23.80;52.90;;;;;;5026760;28;20493;-80
2022/07/15 11:08:54;;;;;;;7.83;2.30;;;23.80;53.00;;;;;;5027973;28;20458;-81
2022/07/15 11:11:49;;;;;;;5.00;2.50;;;23.80;53.00;;;;;;5028349;28;20488;-81
2022/07/15 11:14:50;;;;;;;6.40;2.20;;;23.80;53.00;;;;;;5029420;28;20449;-80
2022/07/15 11:17:24;;;;;;;5.50;1.70;;;23.90;53.00;;;;;;5021444;28;20464;-81
2022/07/15 11:19:55;;;;;;;6.57;2.10;;;23.80;53.10;;;;;;5031958;28;20452;-81
2022/07/15 11:22:25;;;;;;;5.93;2.40;;;23.90;53.10;;;;;;5040363;28;20455;-82
2022/07/15 11:24:54;;;;;;;5.10;2.60;;;23.90;53.10;;;;;;5023949;28;20483;-82
2022/07/15 11:27:25;;;;;;;4.80;1.87;;;23.90;53.20;;;;;;5030990;28;20454;-82
2022/07/15 11:30:03;;;;;;;7.60;1.77;;;23.90;53.10;;;;;;5032882;28;20549;-82
2022/07/15 11:32:33;;;;;;;6.23;2.50;;;23.90;53.20;;;;;;5027980;28;20531;-81
2022/07/15 11:35:03;;;;;;;5.30;2.27;;;23.90;53.10;;;;;;5020444;28;20519;-81
2022/07/15 11:37:33;;;;;;;5.60;2.50;;;23.90;53.10;;;;;;5015665;28;21221;-81
2022/07/15 11:40:11;;;;;;;6.90;2.23;;;23.80;53.20;;;;;;5022470;28;20461;-80
2022/07/15 11:45:34;;;;;;;5.97;2.50;;;23.70;53.30;;;;;;5023513;28;20528;-81
2022/07/15 11:48:02;;;;;;;8.30;2.93;;;23.70;53.40;;;;;;5028096;28;20458;-82
2022/07/15 11:50:30;;;;;;;7.60;2.50;;;23.70;53.60;;;;;;5025030;28;20473;-82
2022/07/15 11:53:00;;;;;;;5.60;3.17;;;23.80;53.70;;;;;;5026587;28;20484;-82
2022/07/15 11:55:28;;;;;;;8.30;3.30;;;23.80;53.70;;;;;;5026277;28;20495;-82
2022/07/15 11:57:57;;;;;;;12.37;3.73;;;23.80;53.60;;;;;;5009046;28;20446;-81
2022/07/15 12:00:30;;;;;;;8.02;2.88;;;23.90;53.50;;;;;;4143380;28;10000341;-82
2022/07/15 12:03:09;;;;;;;9.71;3.20;;;23.90;53.60;;;;;;4534153;28;10001252;-81
2022/07/15 12:05:38;;;;;;;6.23;2.20;;;23.90;53.60;;;;;;5023711;28;20214;-82
2022/07/15 12:08:06;;;;;;;4.77;2.53;;;23.90;53.60;;;;;;5027338;28;20461;-82
2022/07/15 12:10:35;;;;;;;5.63;2.53;;;24.00;53.50;;;;;;5026981;28;20449;-82
2022/07/15 12:13:04;;;;;;;4.90;2.40;;;24.00;53.50;;;;;;5023603;28;20497;-82
2022/07/15 12:15:33;;;;;;;6.80;3.80;;;24.00;53.20;;;;;;5014050;28;20486;-81
2022/07/15 12:18:02;;;;;;;7.87;2.43;;;24.00;53.30;;;;;;4134752;28;10000435;-80
2022/07/15 12:20:31;;;;;;;7.27;2.70;;;24.10;53.30;;;;;;5005065;28;20477;-82
2022/07/15 12:23:04;;;;;;;9.13;2.70;;;24.10;53.30;;;;;;5024283;28;20538;-82
2022/07/15 12:25:32;;;;;;;13.77;2.90;;;24.10;53.10;;;;;;5016560;28;20490;-82
2022/07/15 12:28:00;;;;;;;7.60;2.37;;;24.10;53.10;;;;;;5026574;28;20467;-82
2022/07/15 12:30:35;;;;;;;6.53;2.40;;;24.10;53.10;;;;;;5027514;28;20567;-82
2022/07/15 12:33:17;;;;;;;9.00;2.70;;;24.10;53.20;;;;;;5028643;28;20630;-82
2022/07/15 12:35:45;;;;;;;10.73;2.80;;;24.10;53.10;;;;;;5027847;28;20497;-82
2022/07/15 12:38:26;;;;;;;12.70;3.30;;;24.10;53.00;;;;;;5027497;28;20468;-82
2022/07/15 12:41:04;;;;;;;8.57;2.60;;;24.10;53.00;;;;;;5021278;28;20449;-82
2022/07/15 12:43:50;;;;;;;5.83;2.70;;;24.00;52.80;;;;;;5029061;28;20449;-78
2022/07/15 12:46:20;;;;;;;6.43;3.30;;;24.00;52.90;;;;;;5030368;28;20556;-78
2022/07/15 12:48:50;;;;;;;6.90;3.20;;;24.10;52.70;;;;;;5027442;28;20492;-79
2022/07/15 12:51:25;;;;;;;5.83;2.20;;;24.10;52.70;;;;;;5023737;28;20468;-79
2022/07/15 12:53:53;;;;;;;6.37;2.93;;;24.10;52.60;;;;;;5027473;28;20474;-79
2022/07/15 12:56:21;;;;;;;11.83;3.03;;;24.00;52.30;;;;;;5027736;28;20501;-79
2022/07/15 12:58:51;;;;;;;7.60;2.80;;;24.00;52.30;;;;;;5026129;28;20993;-79
2022/07/15 13:01:21;;;;;;;7.23;2.93;;;24.00;52.10;;;;;;5025388;28;20476;-79
2022/07/15 13:03:52;;;;;;;4.60;2.50;;;24.00;52.20;;;;;;5021313;28;21023;-79
2022/07/15 13:06:20;;;;;;;16.90;2.30;;;24.10;52.20;;;;;;5024248;28;20488;-79
2022/07/15 13:08:48;;;;;;;6.80;2.60;;;24.20;51.90;;;;;;5025448;28;20970;-79
2022/07/15 13:11:17;;;;;;;7.90;2.53;;;24.20;51.80;;;;;;5022086;28;21035;-79
2022/07/15 13:13:47;;;;;;;7.80;3.33;;;24.30;51.60;;;;;;5022965;28;20484;-79
2022/07/15 13:16:15;;;;;;;6.13;2.37;;;24.30;51.50;;;;;;4119171;28;10000817;-79